Aérodrome :
LOGIN :

S'inscrire | Disclaimer

   EN    FR    IT 

 










Légende :    VFR   VFR Marginal   IFR   IFR Intensif   IFR Très Intensif
Visi : 
Plafond : 
>= 8 km
>= 3000ft
5 à 8 km
1000 à 3000 ft
1500m à 5 km
500 à 1000 ft
800 à 1500m
200 à 500 ft
< 800m
< 200 ft
Symboles :   Orages  Brouillard  Fortes neiges  Fortes précipitations  Vent > 20 kt
SIGMETs :   Divers  Orages  Givrage  Turbulence  Onde Orograph.  Cendres Volcan.







- Altitude de l'aérodrome : 308 ft
- Code IATA : MHG


EDFM - Mannheim-City

DERNIER METAR :
  • 222120Z 25005KT 220V300 CAVOK 28/12 Q1010

METARs EXPIRÉS :
  • 222050Z 22004KT 180V280 CAVOK 28/17 Q1010
  • 222020Z 19005KT 160V220 CAVOK 29/18 Q1009
  • 221950Z 22006KT CAVOK 30/18 Q1010
  • 221920Z 23005KT 190V270 CAVOK 31/18 Q1009
  • 221850Z 20006KT 170V230 CAVOK 31/18 Q1009

Prévision TAF périmée.
Pas de NOTAMs connus pour ce terrain.
1 SIGMET publié pour la FIR Langen (EDGG) :
 
Orages fréquents avec grêle
EDGG SIGMET 5 VALID 222015/222215 EDZF
EDGG LANGEN FIR FRQ TSGR OBS WI N5121 E01011 - N5119 E01035 - N5044 E01040 - N5028 E01032 - N5017 E00848 - N5034 E00843 - N5121 E01011 TOP FL420 MOV E WKN=



MET'MAP, la Météo Aéronautique d'un coup d'oeil ! - Copyright ORBIFLY Décembre 2007 - Disclaimer

ORBIFLY MET'MAP TEAM :

Programmation & Développement : Alexandra Zaïnal
Conception & Développement : Baudouin d'Aumeries
Co-Programmation & Développement : Marc-Olivier Méhu
Soutien technique & logistique : Manuel Goepfert

Contact : metmap@orbifly.com




SOURCES & CREDITS :

   NOAA